Alitalia B772 near Tokyo on May 2nd 2019, turbulence injures 3 cabin crew

Last Update: May 2, 2019 / 22:04:37 GMT/Zulu time

Bookmark this article
Incident Facts

Date of incident
May 2, 2019

Classification
Accident

Airline
Alitalia

Flight number
AZ-784

Aircraft Registration
EI-DBM

Aircraft Type
Boeing 777-200

ICAO Type Designator
B772

An Alitalia Boeing 777-200, registration EI-DBM performing flight AZ-784 (dep May 1st) from Rome Fiumicino (Italy) to Tokyo Narita (Japan) with 242 passengers and 14 crew, was descending towards Tokyo when the aircraft encountered turbulence. The fasten seat belts signs were illuminated at that time. Three of the flight attendants who were still working to prepare the cabin for the arrival received minor head injuries as result of the turbulence encounter. The aircraft continued for a safe landing about 20 minutes later at 10:24L (01:24Z).

The aircraft was able to depart for the return flight AZ-785 on schedule.

Metars:
RJAA 020230Z 18005KT 150V220 9999 SHRA FEW013 SCT020 BKN070 18/13 Q1005 TEMPO 3000 TSRA BR FEW008 BKN012 FEW020CB=
RJAA 020200Z 17005KT 140V220 9999 -SHRA FEW013 SCT020 BKN050 18/14 Q1005 TEMPO 3000 TSRA BR FEW008 BKN012 FEW020CB RMK 1CU013 3CU020 7SC050 A2969=
RJAA 020130Z 17006KT 140V200 9999 -SHRA FEW013 SCT020 BKN050 18/14 Q1005 NOSIG=
RJAA 020100Z 23003KT 180V260 9999 FEW013 BKN050 18/14 Q1005 NOSIG=
RJAA 020030Z 21003KT 160V270 9999 FEW015 BKN040 17/14 Q1005 NOSIG=
RJAA 020000Z 19004KT 150V230 9999 FEW010 BKN040 17/15 Q1005 NOSIG=
RJAA 012330Z 20005KT 170V240 9999 FEW010 SCT040 BKN070 17/14 Q1004 NOSIG=
RJAA 012300Z 20005KT 170V230 9999 FEW007 BKN070 16/14 Q1004 NOSIG=
RJAA 012230Z 20006KT 9999 FEW007 BKN070 16/14 Q1003 NOSIG=
RJAA 012200Z 22005KT 190V250 9999 FEW030 SCT040 BKN070 15/14 Q1003 NOSIG=
RJAA 012130Z 23004KT 200V270 9999 FEW030 BKN040 BKN070 14/14 Q1003 NOSIG=
RJAA 012100Z 20003KT 150V230 9999 FEW030 BKN070 BKN/// 14/14 Q1002 NOSIG=
Aircraft Registration Data
Registration mark
EI-DBM
Country of Registration
Ireland
Date of Registration
EfmjbkijiAbcmkegl Subscribe to unlock
Manufacturer
THE BOEING COMPANY
Aircraft Model / Type
BOEING 777-243
ICAO Aircraft Type
B772
Year of Manufacture
Serial Number
Aircraft Address / Mode S Code (HEX)
Maximum Take off Mass (MTOM) [kg]
Engine Count
Engine
FAfqeqAAgbkhjglkiqn mncmdgkjcenejf Subscribe to unlock
Main Owner
Gnnl njecb klnnieqmeqejAmedAkcfkpqfmpnbdeiqAfAnnqk AA cepp kgpjq ndknelij Subscribe to unlock
Incident Facts

Date of incident
May 2, 2019

Classification
Accident

Airline
Alitalia

Flight number
AZ-784

Aircraft Registration
EI-DBM

Aircraft Type
Boeing 777-200

ICAO Type Designator
B772

This article is published under license from Avherald.com. © of text by Avherald.com.
Article source

You can read 2 more free articles without a subscription.

Subscribe now and continue reading without any limits!

Are you a subscriber? Login
Subscribe

Read unlimited articles and receive our daily update briefing. Gain better insights into what is happening in commercial aviation safety.

Free newsletter

Want to know more and stay ahead? Get our free weekly newsletter and join 5470 existing subscribers.

By subscribing, you accept our terms and conditions and confirm that you've read our privacy policy.

Send tip

Support AeroInside by sending a small tip amount.

Related articles

Newest articles

Subscribe today

Are you researching aviation incidents? Get access to AeroInside Insights, unlimited read access and receive the daily newsletter.

Pick your plan and subscribe

Partner

Blockaviation logo

A new way to document and demonstrate airworthiness compliance and aircraft value. Find out more.

Virtual Speech logo

ELITE Simulation Solutions is a leading global provider of Flight Simulation Training Devices, IFR training software as well as flight controls and related services. Find out more.

Get updates

Never miss an article from AeroInside. Subscribe to our free weekly newsletter and join 5470 existing subscribers.

By subscribing, you accept our terms and conditions and that you've read our privacy policy.

AeroInside Blog
Popular aircraft
Airbus A320
Boeing 737-800
Boeing 737-800 MAX
Popular airlines
American Airlines
United
Delta
Air Canada
Lufthansa
British Airways